sensor_id;sensor_type;location;lat;lon;timestamp;pressure;altitude;pressure_sealevel;temperature;humidity
64115;BME280;62188;35.640;139.748;2023-07-02T00:01:58;100763.95;;;31.24;37.89
64115;BME280;62188;35.640;139.748;2023-07-02T00:04:24;100760.60;;;31.29;37.33
64115;BME280;62188;35.640;139.748;2023-07-02T00:06:49;100761.61;;;31.27;37.04
64115;BME280;62188;35.640;139.748;2023-07-02T00:09:15;100755.81;;;31.34;37.25
64115;BME280;62188;35.640;139.748;2023-07-02T00:11:41;100761.36;;;31.40;37.80
64115;BME280;62188;35.640;139.748;2023-07-02T00:14:05;100760.67;;;31.01;37.57
64115;BME280;62188;35.640;139.748;2023-07-02T00:16:30;100758.25;;;31.18;37.43
64115;BME280;62188;35.640;139.748;2023-07-02T00:18:55;100759.42;;;30.95;37.30
64115;BME280;62188;35.640;139.748;2023-07-02T00:21:20;100754.68;;;31.19;37.25
64115;BME280;62188;35.640;139.748;2023-07-02T00:23:46;100757.09;;;31.00;37.29
64115;BME280;62188;35.640;139.748;2023-07-02T00:26:12;100761.39;;;31.02;37.48
64115;BME280;62188;35.640;139.748;2023-07-02T00:28:37;100761.48;;;31.19;37.11
64115;BME280;62188;35.640;139.748;2023-07-02T00:31:02;100758.89;;;31.81;36.65
64115;BME280;62188;35.640;139.748;2023-07-02T00:33:27;100751.92;;;31.39;36.83
64115;BME280;62188;35.640;139.748;2023-07-02T00:35:53;100752.84;;;31.53;36.90
64115;BME280;62188;35.640;139.748;2023-07-02T00:38:18;100753.99;;;31.66;36.70
64115;BME280;62188;35.640;139.748;2023-07-02T00:40:43;100757.57;;;31.46;36.50
64115;BME280;62188;35.640;139.748;2023-07-02T00:43:08;100760.45;;;31.54;36.70
64115;BME280;62188;35.640;139.748;2023-07-02T00:45:34;100764.37;;;31.38;37.01
64115;BME280;62188;35.640;139.748;2023-07-02T00:47:59;100761.57;;;31.21;36.94
64115;BME280;62188;35.640;139.748;2023-07-02T00:50:25;100764.36;;;31.50;37.14
64115;BME280;62188;35.640;139.748;2023-07-02T00:52:50;100765.80;;;31.40;37.14
64115;BME280;62188;35.640;139.748;2023-07-02T00:55:15;100759.96;;;31.06;37.35
64115;BME280;62188;35.640;139.748;2023-07-02T00:57:40;100758.40;;;31.48;37.41
64115;BME280;62188;35.640;139.748;2023-07-02T01:00:06;100756.19;;;31.26;37.56
64115;BME280;62188;35.640;139.748;2023-07-02T01:02:31;100757.00;;;31.33;37.71
64115;BME280;62188;35.640;139.748;2023-07-02T01:04:56;100754.58;;;31.29;38.14
64115;BME280;62188;35.640;139.748;2023-07-02T01:07:21;100748.85;;;31.67;37.62
64115;BME280;62188;35.640;139.748;2023-07-02T01:09:46;100749.09;;;31.42;37.43
64115;BME280;62188;35.640;139.748;2023-07-02T01:12:12;100747.06;;;31.69;37.38
64115;BME280;62188;35.640;139.748;2023-07-02T01:14:41;100747.82;;;31.96;37.14
64115;BME280;62188;35.640;139.748;2023-07-02T01:17:03;100748.93;;;31.48;36.99
64115;BME280;62188;35.640;139.748;2023-07-02T01:19:37;100750.52;;;31.55;36.93
64115;BME280;62188;35.640;139.748;2023-07-02T01:21:53;100749.77;;;31.62;36.87
64115;BME280;62188;35.640;139.748;2023-07-02T01:24:18;100747.59;;;31.35;36.98
64115;BME280;62188;35.640;139.748;2023-07-02T01:26:44;100750.64;;;31.50;36.97
64115;BME280;62188;35.640;139.748;2023-07-02T01:29:16;100750.21;;;31.54;37.00
64115;BME280;62188;35.640;139.748;2023-07-02T01:31:34;100748.69;;;31.65;36.81
64115;BME280;62188;35.640;139.748;2023-07-02T01:33:59;100747.09;;;31.39;37.11
64115;BME280;62188;35.640;139.748;2023-07-02T01:36:26;100747.42;;;31.53;37.31
64115;BME280;62188;35.640;139.748;2023-07-02T01:38:51;100750.64;;;31.61;37.91
64115;BME280;62188;35.640;139.748;2023-07-02T01:41:16;100746.34;;;31.34;38.12
64115;BME280;62188;35.640;139.748;2023-07-02T01:43:41;100742.47;;;31.42;38.03
64115;BME280;62188;35.640;139.748;2023-07-02T01:46:06;100747.24;;;31.43;38.46
64115;BME280;62188;35.640;139.748;2023-07-02T01:48:31;100746.20;;;31.20;37.81
64115;BME280;62188;35.640;139.748;2023-07-02T01:50:57;100741.91;;;31.24;38.13
64115;BME280;62188;35.640;139.748;2023-07-02T01:53:22;100745.48;;;31.44;38.57
64115;BME280;62188;35.640;139.748;2023-07-02T01:55:47;100754.14;;;31.31;39.04
64115;BME280;62188;35.640;139.748;2023-07-02T01:58:12;100752.70;;;31.35;38.48
64115;BME280;62188;35.640;139.748;2023-07-02T02:00:38;100746.12;;;31.48;38.61
64115;BME280;62188;35.640;139.748;2023-07-02T02:03:04;100746.03;;;31.71;38.76
64115;BME280;62188;35.640;139.748;2023-07-02T02:05:29;100748.42;;;31.79;38.86
64115;BME280;62188;35.640;139.748;2023-07-02T02:07:54;100746.97;;;31.71;38.49
64115;BME280;62188;35.640;139.748;2023-07-02T02:10:19;100743.65;;;31.36;38.62
64115;BME280;62188;35.640;139.748;2023-07-02T02:12:44;100735.15;;;31.92;38.47
64115;BME280;62188;35.640;139.748;2023-07-02T02:15:10;100741.36;;;31.48;38.76
64115;BME280;62188;35.640;139.748;2023-07-02T02:17:35;100744.30;;;31.83;39.22
64115;BME280;62188;35.640;139.748;2023-07-02T02:20:00;100734.14;;;31.68;39.10
64115;BME280;62188;35.640;139.748;2023-07-02T02:22:26;100731.67;;;31.67;39.52
64115;BME280;62188;35.640;139.748;2023-07-02T02:24:51;100728.52;;;31.93;39.20
64115;BME280;62188;35.640;139.748;2023-07-02T02:27:17;100725.35;;;31.85;39.06
64115;BME280;62188;35.640;139.748;2023-07-02T02:29:42;100720.97;;;31.70;39.45
64115;BME280;62188;35.640;139.748;2023-07-02T02:32:08;100718.18;;;31.68;39.29
64115;BME280;62188;35.640;139.748;2023-07-02T02:34:32;100718.77;;;31.69;39.61
64115;BME280;62188;35.640;139.748;2023-07-02T02:36:57;100721.62;;;31.94;39.52
64115;BME280;62188;35.640;139.748;2023-07-02T02:39:23;100719.32;;;31.86;39.70
64115;BME280;62188;35.640;139.748;2023-07-02T02:41:49;100714.53;;;31.67;39.77
64115;BME280;62188;35.640;139.748;2023-07-02T02:44:14;100715.82;;;31.89;39.35
64115;BME280;62188;35.640;139.748;2023-07-02T02:46:39;100711.50;;;31.71;39.51
64115;BME280;62188;35.640;139.748;2023-07-02T02:49:04;100704.60;;;31.94;39.80
64115;BME280;62188;35.640;139.748;2023-07-02T02:51:30;100703.80;;;31.76;39.77
64115;BME280;62188;35.640;139.748;2023-07-02T02:53:55;100698.04;;;31.92;39.90
64115;BME280;62188;35.640;139.748;2023-07-02T02:56:20;100707.25;;;31.79;40.21
64115;BME280;62188;35.640;139.748;2023-07-02T02:58:45;100700.61;;;31.63;40.41
64115;BME280;62188;35.640;139.748;2023-07-02T03:01:10;100696.58;;;31.75;40.47
64115;BME280;62188;35.640;139.748;2023-07-02T03:03:36;100698.61;;;31.78;40.15
64115;BME280;62188;35.640;139.748;2023-07-02T03:06:01;100696.94;;;32.07;40.36
64115;BME280;62188;35.640;139.748;2023-07-02T03:08:27;100705.23;;;31.62;39.98
64115;BME280;62188;35.640;139.748;2023-07-02T03:10:52;100706.26;;;31.69;39.77
64115;BME280;62188;35.640;139.748;2023-07-02T03:13:17;100701.49;;;31.88;39.61
64115;BME280;62188;35.640;139.748;2023-07-02T03:15:42;100700.41;;;31.83;39.51
64115;BME280;62188;35.640;139.748;2023-07-02T03:18:07;100703.76;;;31.84;39.76
64115;BME280;62188;35.640;139.748;2023-07-02T03:20:33;100703.89;;;31.70;39.71
64115;BME280;62188;35.640;139.748;2023-07-02T03:22:59;100704.00;;;31.76;39.71
64115;BME280;62188;35.640;139.748;2023-07-02T03:25:24;100700.99;;;31.73;39.50
64115;BME280;62188;35.640;139.748;2023-07-02T03:27:49;100701.07;;;32.02;39.41
64115;BME280;62188;35.640;139.748;2023-07-02T03:30:15;100701.78;;;32.08;39.48
64115;BME280;62188;35.640;139.748;2023-07-02T03:32:39;100696.33;;;32.12;39.17
64115;BME280;62188;35.640;139.748;2023-07-02T03:35:06;100698.02;;;31.94;38.84
64115;BME280;62188;35.640;139.748;2023-07-02T03:37:30;100696.28;;;32.00;38.88
64115;BME280;62188;35.640;139.748;2023-07-02T03:39:56;100695.93;;;31.92;38.38
64115;BME280;62188;35.640;139.748;2023-07-02T03:42:21;100697.26;;;31.94;38.27
64115;BME280;62188;35.640;139.748;2023-07-02T03:44:46;100693.89;;;31.76;38.52
64115;BME280;62188;35.640;139.748;2023-07-02T03:47:11;100695.51;;;31.75;38.52
64115;BME280;62188;35.640;139.748;2023-07-02T03:49:37;100698.74;;;31.78;38.08
64115;BME280;62188;35.640;139.748;2023-07-02T03:52:03;100696.54;;;31.98;38.78
64115;BME280;62188;35.640;139.748;2023-07-02T03:54:28;100692.92;;;31.98;38.64
64115;BME280;62188;35.640;139.748;2023-07-02T03:56:53;100692.65;;;32.04;38.45
64115;BME280;62188;35.640;139.748;2023-07-02T03:59:18;100689.50;;;31.55;38.42
64115;BME280;62188;35.640;139.748;2023-07-02T04:01:44;100689.80;;;31.70;38.59
64115;BME280;62188;35.640;139.748;2023-07-02T04:04:09;100687.43;;;31.74;38.54
64115;BME280;62188;35.640;139.748;2023-07-02T04:06:34;100682.44;;;31.47;38.04
64115;BME280;62188;35.640;139.748;2023-07-02T04:08:59;100680.04;;;31.99;37.60
64115;BME280;62188;35.640;139.748;2023-07-02T04:11:25;100680.85;;;31.85;37.95
64115;BME280;62188;35.640;139.748;2023-07-02T04:13:51;100678.06;;;31.94;37.85
